Time,TemperatureF,DewpointF,PressureIn,WindDirection,WindDirectionDegrees,WindSpeedMPH,WindSpeedGustMPH,Humidity,HourlyPrecipIn,Conditions,Clouds,dailyrainin,SolarRadiationWatts/m^2,SoftwareType,DateUTC
2013-05-26 00:01:00,78.6,77.0,30.07,ESE,107,0.0,0.0,95,0.00,,,0.00,0.0,meteohub,2013-05-26 04:01:00,
2013-05-26 00:02:00,78.6,77.0,30.07,ESE,107,0.0,0.0,95,0.00,,,0.00,0.0,meteohub,2013-05-26 04:02:00,
2013-05-26 00:07:00,78.6,77.4,30.07,ESE,107,0.0,0.0,96,0.00,,,0.00,0.0,meteohub,2013-05-26 04:07:00,
2013-05-26 00:12:00,78.4,77.2,30.07,ESE,110,0.0,0.0,96,0.00,,,0.00,0.0,meteohub,2013-05-26 04:12:00,
2013-05-26 00:17:00,78.4,77.2,30.06,ESE,112,2.0,0.0,96,0.00,,,0.00,0.0,meteohub,2013-05-26 04:17:00,
2013-05-26 00:22:00,78.4,77.2,30.06,ESE,121,0.0,6.0,96,0.00,,,0.00,0.0,meteohub,2013-05-26 04:22:00,
2013-05-26 00:27:00,78.4,77.2,30.06,ESE,121,0.0,6.0,96,0.00,,,0.00,0.0,meteohub,2013-05-26 04:27:00,
2013-05-26 00:32:00,78.4,77.2,30.06,ESE,123,0.0,6.0,96,0.00,,,0.00,0.0,meteohub,2013-05-26 04:32:00,
2013-05-26 00:37:00,78.4,77.2,30.06,ESE,123,0.0,0.0,96,0.00,,,0.00,0.0,meteohub,2013-05-26 04:37:00,
2013-05-26 00:42:00,78.3,77.0,30.06,ESE,110,0.0,0.0,96,0.00,,,0.00,0.0,meteohub,2013-05-26 04:42:00,
2013-05-26 00:47:00,78.3,77.0,30.05,ESE,110,0.0,0.0,96,0.00,,,0.00,0.0,meteohub,2013-05-26 04:47:00,
2013-05-26 00:52:00,78.3,77.0,30.05,ESE,116,0.0,6.0,96,0.00,,,0.00,0.0,meteohub,2013-05-26 04:52:00,
2013-05-26 00:57:00,78.1,76.8,30.05,ESE,114,0.0,6.0,96,0.00,,,0.00,0.0,meteohub,2013-05-26 04:57:00,
2013-05-26 01:02:00,78.1,76.8,30.06,ESE,116,0.0,6.0,96,0.00,,,0.00,0.0,meteohub,2013-05-26 05:02:00,
2013-05-26 01:07:00,77.9,76.6,30.06,ESE,117,0.0,0.0,96,0.00,,,0.00,0.0,meteohub,2013-05-26 05:07:00,
2013-05-26 01:12:00,77.7,76.8,30.05,ESE,116,0.0,0.0,97,0.00,,,0.00,0.0,meteohub,2013-05-26 05:12:00,
2013-05-26 01:17:00,77.7,76.8,30.05,ESE,112,0.0,0.0,97,0.00,,,0.00,0.0,meteohub,2013-05-26 05:17:00,
2013-05-26 01:22:00,77.5,76.6,30.05,ESE,116,0.0,0.0,97,0.00,,,0.00,0.0,meteohub,2013-05-26 05:22:00,
2013-05-26 01:27:00,77.5,76.6,30.05,ESE,117,0.0,0.0,97,0.00,,,0.00,0.0,meteohub,2013-05-26 05:27:00,
2013-05-26 01:32:00,77.5,76.6,30.05,ESE,116,0.0,0.0,97,0.00,,,0.00,0.0,meteohub,2013-05-26 05:32:00,
2013-05-26 01:37:00,77.5,76.6,30.05,ESE,117,0.0,0.0,97,0.00,,,0.00,0.0,meteohub,2013-05-26 05:37:00,
2013-05-26 01:43:00,77.5,76.6,30.04,ESE,116,0.0,0.0,97,0.00,,,0.00,0.0,meteohub,2013-05-26 05:43:00,
2013-05-26 01:48:00,77.4,76.5,30.04,ESE,117,0.0,0.0,97,0.00,,,0.00,0.0,meteohub,2013-05-26 05:48:00,
2013-05-26 01:53:00,77.4,76.5,30.04,ESE,117,0.0,0.0,97,0.00,,,0.00,0.0,meteohub,2013-05-26 05:53:00,
2013-05-26 01:58:00,77.4,76.5,30.04,ESE,117,0.0,0.0,97,0.00,,,0.00,0.0,meteohub,2013-05-26 05:58:00,
2013-05-26 02:03:00,77.4,76.5,30.04,ESE,117,0.0,0.0,97,0.00,,,0.00,0.0,meteohub,2013-05-26 06:03:00,
2013-05-26 02:08:00,77.4,76.5,30.04,ESE,117,0.0,0.0,97,0.00,,,0.00,0.0,meteohub,2013-05-26 06:08:00,
2013-05-26 02:13:00,77.4,76.5,30.04,ESE,116,0.0,0.0,97,0.00,,,0.00,0.0,meteohub,2013-05-26 06:13:00,
2013-05-26 02:18:00,77.4,76.5,30.04,ESE,117,0.0,0.0,97,0.00,,,0.00,0.0,meteohub,2013-05-26 06:18:00,
2013-05-26 02:23:00,77.4,76.5,30.04,ESE,117,0.0,0.0,97,0.00,,,0.00,0.0,meteohub,2013-05-26 06:23:00,
2013-05-26 02:28:00,77.4,76.5,30.03,ESE,112,0.0,0.0,97,0.00,,,0.00,0.0,meteohub,2013-05-26 06:28:00,
2013-05-26 02:33:00,77.4,76.5,30.03,ESE,117,0.0,0.0,97,0.00,,,0.00,0.0,meteohub,2013-05-26 06:33:00,
2013-05-26 02:38:00,77.2,76.3,30.03,ESE,117,0.0,0.0,97,0.00,,,0.00,0.0,meteohub,2013-05-26 06:38:00,
2013-05-26 02:43:00,77.2,76.3,30.04,ESE,117,0.0,0.0,97,0.00,,,0.00,0.0,meteohub,2013-05-26 06:43:00,
2013-05-26 02:48:00,77.2,76.3,30.04,ESE,117,0.0,0.0,97,0.00,,,0.00,0.0,meteohub,2013-05-26 06:48:00,
2013-05-26 02:53:00,77.2,76.3,30.04,ESE,117,0.0,0.0,97,0.00,,,0.00,0.0,meteohub,2013-05-26 06:53:00,
2013-05-26 02:58:00,77.2,76.3,30.03,ESE,117,0.0,0.0,97,0.00,,,0.00,0.0,meteohub,2013-05-26 06:58:00,
2013-05-26 03:03:00,77.0,76.1,30.03,ESE,117,0.0,0.0,97,0.00,,,0.00,0.0,meteohub,2013-05-26 07:03:00,
2013-05-26 03:08:00,77.0,76.1,30.03,ESE,117,0.0,0.0,97,0.00,,,0.00,0.0,meteohub,2013-05-26 07:08:00,
2013-05-26 03:13:00,77.0,76.1,30.03,ESE,117,0.0,0.0,97,0.00,,,0.00,0.0,meteohub,2013-05-26 07:13:00,
2013-05-26 03:18:00,76.8,75.9,30.03,ESE,117,0.0,0.0,97,0.00,,,0.00,0.0,meteohub,2013-05-26 07:18:00,
2013-05-26 03:23:00,76.8,75.9,30.03,ESE,119,0.0,0.0,97,0.00,,,0.00,0.0,meteohub,2013-05-26 07:23:00,
2013-05-26 03:28:00,76.8,75.9,30.03,ESE,119,0.0,0.0,97,0.00,,,0.00,0.0,meteohub,2013-05-26 07:28:00,
2013-05-26 03:34:00,76.8,75.9,30.03,ESE,117,0.0,0.0,97,0.00,,,0.00,0.0,meteohub,2013-05-26 07:34:00,
2013-05-26 03:39:00,76.8,75.9,30.03,ESE,116,0.0,0.0,97,0.00,,,0.00,0.0,meteohub,2013-05-26 07:39:00,
2013-05-26 03:44:00,76.6,75.7,30.02,ESE,119,0.0,0.0,97,0.00,,,0.00,0.0,meteohub,2013-05-26 07:44:00,
2013-05-26 03:49:00,76.5,75.9,30.02,ESE,117,0.0,0.0,98,0.00,,,0.00,0.0,meteohub,2013-05-26 07:49:00,
2013-05-26 03:54:00,76.6,76.1,30.02,ESE,116,0.0,0.0,98,0.00,,,0.00,0.0,meteohub,2013-05-26 07:54:00,
2013-05-26 03:59:00,76.6,76.1,30.02,ESE,117,0.0,0.0,98,0.00,,,0.00,0.0,meteohub,2013-05-26 07:59:00,
2013-05-26 04:04:00,76.5,75.9,30.02,ESE,117,0.0,0.0,98,0.00,,,0.00,0.0,meteohub,2013-05-26 08:04:00,
2013-05-26 04:09:00,76.5,75.9,30.02,ESE,117,0.0,0.0,98,0.00,,,0.00,0.0,meteohub,2013-05-26 08:09:00,
2013-05-26 04:14:00,76.5,75.9,30.03,ESE,119,0.0,0.0,98,0.00,,,0.00,0.0,meteohub,2013-05-26 08:14:00,
2013-05-26 04:19:00,76.5,75.9,30.03,ESE,117,0.0,0.0,98,0.00,,,0.00,0.0,meteohub,2013-05-26 08:19:00,
2013-05-26 04:24:00,76.3,75.7,30.03,ESE,117,0.0,0.0,98,0.00,,,0.00,0.0,meteohub,2013-05-26 08:24:00,
2013-05-26 04:29:00,76.3,75.7,30.03,ESE,116,0.0,0.0,98,0.00,,,0.00,0.0,meteohub,2013-05-26 08:29:00,
2013-05-26 04:34:00,76.5,75.9,30.03,ESE,117,0.0,0.0,98,0.00,,,0.00,0.0,meteohub,2013-05-26 08:34:00,
2013-05-26 04:39:00,76.5,75.9,30.03,ESE,117,0.0,0.0,98,0.00,,,0.00,0.0,meteohub,2013-05-26 08:39:00,
2013-05-26 04:44:00,76.5,75.9,30.03,ESE,117,0.0,0.0,98,0.00,,,0.00,0.0,meteohub,2013-05-26 08:44:00,
2013-05-26 04:49:00,76.5,75.9,30.03,ESE,117,0.0,0.0,98,0.00,,,0.00,0.0,meteohub,2013-05-26 08:49:00,
2013-05-26 04:54:00,76.5,75.9,30.03,ESE,119,0.0,0.0,98,0.00,,,0.00,0.0,meteohub,2013-05-26 08:54:00,
2013-05-26 04:59:00,76.3,75.7,30.03,ESE,119,0.0,0.0,98,0.00,,,0.00,0.0,meteohub,2013-05-26 08:59:00,
2013-05-26 05:04:00,76.3,75.7,30.03,ESE,117,0.0,0.0,98,0.00,,,0.00,0.0,meteohub,2013-05-26 09:04:00,
2013-05-26 05:09:00,76.3,75.7,30.03,ESE,119,0.0,0.0,98,0.00,,,0.00,0.0,meteohub,2013-05-26 09:09:00,
2013-05-26 05:14:00,76.3,75.7,30.03,ESE,117,0.0,0.0,98,0.00,,,0.00,0.0,meteohub,2013-05-26 09:14:00,
2013-05-26 05:19:00,76.3,75.7,30.03,ESE,119,0.0,0.0,98,0.00,,,0.00,0.0,meteohub,2013-05-26 09:19:00,
2013-05-26 05:24:00,76.3,75.7,30.03,ESE,119,0.0,0.0,98,0.00,,,0.00,0.0,meteohub,2013-05-26 09:24:00,
2013-05-26 05:29:00,76.1,75.6,30.04,ESE,117,0.0,0.0,98,0.00,,,0.00,0.0,meteohub,2013-05-26 09:29:00,
2013-05-26 05:34:00,76.1,75.7,30.04,ESE,117,0.0,0.0,99,0.00,,,0.00,0.0,meteohub,2013-05-26 09:34:00,
2013-05-26 05:39:00,76.1,75.7,30.04,ESE,116,0.0,0.0,99,0.00,,,0.00,0.0,meteohub,2013-05-26 09:39:00,
2013-05-26 05:44:00,76.1,75.7,30.04,ESE,117,0.0,0.0,99,0.00,,,0.00,0.0,meteohub,2013-05-26 09:44:00,
2013-05-26 05:49:00,76.3,75.9,30.04,ESE,117,0.0,0.0,99,0.00,,,0.00,0.0,meteohub,2013-05-26 09:49:00,
2013-05-26 05:55:00,76.3,75.9,30.04,ESE,117,0.0,0.0,99,0.00,,,0.00,0.0,meteohub,2013-05-26 09:55:00,
2013-05-26 06:00:00,76.3,75.9,30.04,ESE,117,0.0,0.0,99,0.00,,,0.00,5.0,meteohub,2013-05-26 10:00:00,
2013-05-26 06:05:00,76.3,75.9,30.04,ESE,119,0.0,0.0,99,0.00,,,0.00,11.0,meteohub,2013-05-26 10:05:00,
2013-05-26 06:10:00,76.3,75.9,30.04,ESE,117,0.0,0.0,99,0.00,,,0.00,12.0,meteohub,2013-05-26 10:10:00,
2013-05-26 06:15:00,76.3,75.9,30.04,ESE,117,0.0,0.0,99,0.00,,,0.00,16.0,meteohub,2013-05-26 10:15:00,
2013-05-26 06:20:00,76.3,75.9,30.04,ESE,117,0.0,0.0,99,0.00,,,0.00,23.0,meteohub,2013-05-26 10:20:00,
2013-05-26 06:25:00,76.3,75.9,30.04,ESE,117,0.0,0.0,99,0.00,,,0.00,23.0,meteohub,2013-05-26 10:25:00,
2013-05-26 06:30:00,76.3,75.9,30.05,ESE,119,0.0,0.0,99,0.00,,,0.00,46.0,meteohub,2013-05-26 10:30:00,
2013-05-26 06:35:00,76.6,76.3,30.05,ESE,117,0.0,0.0,99,0.00,,,0.00,107.0,meteohub,2013-05-26 10:35:00,
2013-05-26 06:40:00,76.8,76.5,30.05,ESE,117,0.0,0.0,99,0.00,,,0.00,135.0,meteohub,2013-05-26 10:40:00,
2013-05-26 06:45:00,77.4,77.0,30.06,ESE,116,0.0,0.0,99,0.00,,,0.00,153.0,meteohub,2013-05-26 10:45:00,
2013-05-26 06:50:00,77.7,77.2,30.06,ESE,117,0.0,0.0,98,0.00,,,0.00,171.0,meteohub,2013-05-26 10:50:00,
2013-05-26 06:55:00,78.3,77.7,30.06,ESE,116,0.0,0.0,98,0.00,,,0.00,188.0,meteohub,2013-05-26 10:55:00,
2013-05-26 07:00:00,78.6,77.7,30.06,North,11,1.0,0.0,97,0.00,,,0.00,199.0,meteohub,2013-05-26 11:00:00,
2013-05-26 07:05:00,78.8,77.5,30.06,NE,40,0.0,0.0,96,0.00,,,0.00,229.0,meteohub,2013-05-26 11:05:00,
2013-05-26 07:10:00,79.2,77.9,30.06,NE,38,0.0,1.0,96,0.00,,,0.00,236.0,meteohub,2013-05-26 11:10:00,
2013-05-26 07:15:00,79.3,77.7,30.06,NE,40,0.0,1.0,95,0.00,,,0.00,243.0,meteohub,2013-05-26 11:15:00,
2013-05-26 07:20:00,79.5,77.9,30.06,NE,40,0.0,0.0,95,0.00,,,0.00,262.0,meteohub,2013-05-26 11:20:00,
2013-05-26 07:25:00,79.9,78.3,30.06,NE,38,0.0,0.0,95,0.00,,,0.00,282.0,meteohub,2013-05-26 11:25:00,
2013-05-26 07:30:00,80.1,78.3,30.06,East,96,0.0,0.0,94,0.00,,,0.00,301.0,meteohub,2013-05-26 11:30:00,
2013-05-26 07:35:00,80.4,78.6,30.06,East,97,0.0,0.0,94,0.00,,,0.00,313.0,meteohub,2013-05-26 11:35:00,
2013-05-26 07:40:00,81.0,78.8,30.06,SE,144,6.0,0.0,93,0.00,,,0.00,343.0,meteohub,2013-05-26 11:40:00,
2013-05-26 07:45:00,81.1,78.6,30.07,SE,137,0.0,8.0,92,0.00,,,0.00,257.0,meteohub,2013-05-26 11:45:00,
2013-05-26 07:50:00,81.7,78.8,30.07,ESE,119,7.0,8.0,91,0.00,,,0.00,354.0,meteohub,2013-05-26 11:50:00,
2013-05-26 07:55:00,81.7,78.4,30.07,ESE,119,7.0,8.0,90,0.00,,,0.00,350.0,meteohub,2013-05-26 11:55:00,
2013-05-26 08:01:00,81.9,78.3,30.07,SE,128,2.0,12.0,89,0.00,,,0.00,355.0,meteohub,2013-05-26 12:01:00,
2013-05-26 08:06:00,82.0,78.4,30.07,East,100,2.0,12.0,89,0.00,,,0.00,311.0,meteohub,2013-05-26 12:06:00,
2013-05-26 08:11:00,81.9,78.3,30.07,ESE,123,2.0,12.0,89,0.00,,,0.00,151.0,meteohub,2013-05-26 12:11:00,
2013-05-26 08:16:00,82.2,78.6,30.07,East,97,0.0,11.0,89,0.00,,,0.00,593.0,meteohub,2013-05-26 12:16:00,
2013-05-26 08:21:00,82.8,78.8,30.07,SE,130,8.0,10.0,88,0.00,,,0.00,412.0,meteohub,2013-05-26 12:21:00,
2013-05-26 08:26:00,82.8,78.4,30.07,SE,131,4.0,11.0,87,0.00,,,0.00,625.0,meteohub,2013-05-26 12:26:00,
2013-05-26 08:31:00,82.9,78.3,30.08,East,88,9.0,13.0,86,0.00,,,0.00,584.0,meteohub,2013-05-26 12:31:00,
2013-05-26 08:36:00,83.1,78.4,30.08,ESE,113,6.0,13.0,86,0.00,,,0.00,172.0,meteohub,2013-05-26 12:36:00,
2013-05-26 08:41:00,83.5,78.4,30.08,ENE,76,3.0,11.0,85,0.00,,,0.00,183.0,meteohub,2013-05-26 12:41:00,
2013-05-26 08:46:00,83.5,78.8,30.08,East,100,7.0,11.0,86,0.00,,,0.00,204.0,meteohub,2013-05-26 12:46:00,
2013-05-26 08:51:00,83.1,78.4,30.08,ENE,68,8.0,13.0,86,0.00,,,0.00,239.0,meteohub,2013-05-26 12:51:00,
2013-05-26 08:56:00,83.1,78.4,30.08,East,85,7.0,13.0,86,0.00,,,0.00,255.0,meteohub,2013-05-26 12:56:00,
2013-05-26 09:01:00,83.5,78.8,30.08,ENE,65,9.0,13.0,86,0.00,,,0.00,783.0,meteohub,2013-05-26 13:01:00,
2013-05-26 09:06:00,84.0,78.6,30.08,ENE,66,6.0,14.0,84,0.00,,,0.00,848.0,meteohub,2013-05-26 13:06:00,
2013-05-26 09:11:00,84.6,78.8,30.08,ENE,68,8.0,14.0,83,0.00,,,0.00,922.0,meteohub,2013-05-26 13:11:00,
2013-05-26 09:16:00,84.7,78.3,30.08,ENE,75,7.0,17.0,81,0.00,,,0.00,855.0,meteohub,2013-05-26 13:16:00,
2013-05-26 09:21:00,84.7,78.6,30.08,ENE,76,12.0,17.0,82,0.00,,,0.00,243.0,meteohub,2013-05-26 13:21:00,
2013-05-26 09:26:00,84.9,79.2,30.08,East,85,8.0,17.0,83,0.00,,,0.00,243.0,meteohub,2013-05-26 13:26:00,
2013-05-26 09:31:00,84.9,79.2,30.09,ENE,65,2.0,17.0,83,0.00,,,0.00,882.0,meteohub,2013-05-26 13:31:00,
2013-05-26 09:36:00,85.3,79.2,30.09,East,88,6.0,17.0,82,0.00,,,0.00,830.0,meteohub,2013-05-26 13:36:00,
2013-05-26 09:41:00,85.6,79.2,30.09,East,86,0.0,14.0,81,0.00,,,0.00,848.0,meteohub,2013-05-26 13:41:00,
2013-05-26 09:46:00,86.4,79.5,30.09,NE,44,3.0,14.0,80,0.00,,,0.00,343.0,meteohub,2013-05-26 13:46:00,
2013-05-26 09:51:00,86.4,79.5,30.09,East,89,8.0,13.0,80,0.00,,,0.00,343.0,meteohub,2013-05-26 13:51:00,
2013-05-26 09:56:00,86.4,79.5,30.09,ESE,107,2.0,13.0,80,0.00,,,0.00,913.0,meteohub,2013-05-26 13:56:00,
2013-05-26 10:01:00,86.2,79.7,30.08,East,83,10.0,13.0,81,0.00,,,0.00,892.0,meteohub,2013-05-26 14:01:00,
2013-05-26 10:06:00,86.2,79.7,30.08,ENE,65,12.0,13.0,81,0.00,,,0.00,208.0,meteohub,2013-05-26 14:06:00,
2013-05-26 10:11:00,86.4,79.5,30.08,ENE,72,6.0,16.0,80,0.00,,,0.00,966.0,meteohub,2013-05-26 14:11:00,
2013-05-26 10:16:00,86.7,79.3,30.08,NE,56,4.0,16.0,79,0.00,,,0.00,1045.0,meteohub,2013-05-26 14:16:00,
2013-05-26 10:22:00,87.4,80.1,30.08,ENE,71,7.0,16.0,79,0.00,,,0.00,1026.0,meteohub,2013-05-26 14:22:00,
2013-05-26 10:27:00,88.0,80.6,30.08,ENE,72,10.0,14.0,79,0.00,,,0.00,887.0,meteohub,2013-05-26 14:27:00,
2013-05-26 10:32:00,87.4,79.7,30.08,ENE,72,0.0,12.0,78,0.00,,,0.00,285.0,meteohub,2013-05-26 14:32:00,
2013-05-26 10:37:00,87.6,80.2,30.08,ESE,109,7.0,18.0,79,0.00,,,0.00,310.0,meteohub,2013-05-26 14:37:00,
2013-05-26 10:42:00,87.3,79.5,30.08,ENE,72,6.0,18.0,78,0.00,,,0.00,255.0,meteohub,2013-05-26 14:42:00,
2013-05-26 10:47:00,86.7,79.3,30.08,ESE,110,6.0,18.0,79,0.00,,,0.00,259.0,meteohub,2013-05-26 14:47:00,
2013-05-26 10:52:00,87.4,79.7,30.08,NE,54,10.0,17.0,78,0.00,,,0.00,421.0,meteohub,2013-05-26 14:52:00,
2013-05-26 10:57:00,87.4,79.3,30.08,East,86,9.0,14.0,77,0.00,,,0.00,426.0,meteohub,2013-05-26 14:57:00,
2013-05-26 11:02:00,87.4,79.3,30.08,SE,137,7.0,17.0,77,0.00,,,0.00,1091.0,meteohub,2013-05-26 15:02:00,
2013-05-26 11:07:00,87.3,79.2,30.08,ENE,65,12.0,17.0,77,0.00,,,0.00,384.0,meteohub,2013-05-26 15:07:00,
2013-05-26 11:12:00,87.1,79.3,30.08,ENE,69,7.0,19.0,78,0.00,,,0.00,690.0,meteohub,2013-05-26 15:12:00,
2013-05-26 11:17:00,87.4,79.3,30.08,ENE,71,6.0,19.0,77,0.00,,,0.00,690.0,meteohub,2013-05-26 15:17:00,
2013-05-26 11:22:00,87.3,79.5,30.08,East,86,10.0,19.0,78,0.00,,,0.00,355.0,meteohub,2013-05-26 15:22:00,
2013-05-26 11:27:00,86.7,79.0,30.08,East,97,5.0,16.0,78,0.00,,,0.00,459.0,meteohub,2013-05-26 15:27:00,
2013-05-26 11:32:00,87.1,79.0,30.08,East,86,11.0,16.0,77,0.00,,,0.00,410.0,meteohub,2013-05-26 15:32:00,
2013-05-26 11:37:00,87.1,79.0,30.08,ESE,103,10.0,16.0,77,0.00,,,0.00,519.0,meteohub,2013-05-26 15:37:00,
2013-05-26 11:43:00,87.4,79.0,30.08,ESE,102,5.0,16.0,76,0.00,,,0.00,540.0,meteohub,2013-05-26 15:43:00,
2013-05-26 11:47:00,87.3,77.9,30.08,NE,38,4.0,17.0,74,0.00,,,0.00,667.0,meteohub,2013-05-26 15:47:00,
2013-05-26 11:52:00,87.1,78.3,30.08,ESE,102,14.0,17.0,75,0.00,,,0.00,385.0,meteohub,2013-05-26 15:52:00,
2013-05-26 11:58:00,86.7,78.3,30.08,SE,124,8.0,17.0,76,0.00,,,0.00,384.0,meteohub,2013-05-26 15:58:00,
2013-05-26 12:03:00,86.5,78.1,30.08,ENE,59,6.0,17.0,76,0.00,,,0.00,315.0,meteohub,2013-05-26 16:03:00,
2013-05-26 12:08:00,85.8,77.7,30.08,ESE,109,8.0,14.0,77,0.00,,,0.00,362.0,meteohub,2013-05-26 16:08:00,
2013-05-26 12:13:00,85.8,78.1,30.07,SE,124,10.0,16.0,78,0.00,,,0.00,380.0,meteohub,2013-05-26 16:13:00,
2013-05-26 12:18:00,86.2,78.4,30.07,ENE,78,7.0,16.0,78,0.00,,,0.00,378.0,meteohub,2013-05-26 16:18:00,
2013-05-26 12:23:00,86.2,79.0,30.07,ENE,71,6.0,14.0,79,0.00,,,0.00,412.0,meteohub,2013-05-26 16:23:00,
2013-05-26 12:28:00,86.2,79.0,30.07,ENE,75,16.0,16.0,79,0.00,,,0.00,384.0,meteohub,2013-05-26 16:28:00,
2013-05-26 12:33:00,85.6,77.9,30.07,East,96,16.0,16.0,78,0.00,,,0.00,426.0,meteohub,2013-05-26 16:33:00,
2013-05-26 12:38:00,85.6,79.2,30.07,East,99,8.0,17.0,81,0.00,,,0.00,373.0,meteohub,2013-05-26 16:38:00,
2013-05-26 12:43:00,85.6,79.2,30.07,East,79,5.0,18.0,81,0.00,,,0.00,465.0,meteohub,2013-05-26 16:43:00,
2013-05-26 12:48:00,86.2,79.7,30.07,East,95,8.0,18.0,81,0.00,,,0.00,1279.0,meteohub,2013-05-26 16:48:00,
2013-05-26 12:53:00,87.1,80.2,30.07,East,83,4.0,16.0,80,0.00,,,0.00,973.0,meteohub,2013-05-26 16:53:00,
2013-05-26 12:58:00,87.4,80.1,30.06,East,82,11.0,16.0,79,0.00,,,0.00,1207.0,meteohub,2013-05-26 16:58:00,
2013-05-26 13:03:00,87.4,79.7,30.06,East,80,8.0,20.0,78,0.00,,,0.00,1207.0,meteohub,2013-05-26 17:03:00,
2013-05-26 13:08:00,87.3,79.5,30.06,East,96,6.0,20.0,78,0.00,,,0.00,637.0,meteohub,2013-05-26 17:08:00,
2013-05-26 13:13:00,86.4,79.0,30.06,ESE,110,12.0,18.0,79,0.00,,,0.00,413.0,meteohub,2013-05-26 17:13:00,
2013-05-26 13:18:00,85.6,79.2,30.06,ESE,119,5.0,18.0,81,0.00,,,0.00,1124.0,meteohub,2013-05-26 17:18:00,
2013-05-26 13:23:00,86.2,79.7,30.06,SE,134,6.0,18.0,81,0.00,,,0.00,1239.0,meteohub,2013-05-26 17:23:00,
2013-05-26 13:28:00,86.5,80.1,30.05,East,100,6.0,17.0,81,0.00,,,0.00,941.0,meteohub,2013-05-26 17:28:00,
2013-05-26 13:33:00,86.7,79.9,30.05,ESE,114,7.0,16.0,80,0.00,,,0.00,843.0,meteohub,2013-05-26 17:33:00,
2013-05-26 13:38:00,87.6,80.2,30.05,SE,130,7.0,16.0,79,0.00,,,0.00,1050.0,meteohub,2013-05-26 17:38:00,
2013-05-26 13:43:00,87.6,79.5,30.05,SE,143,10.0,13.0,77,0.00,,,0.00,841.0,meteohub,2013-05-26 17:43:00,
2013-05-26 13:49:00,87.4,79.7,30.05,ESE,112,6.0,18.0,78,0.00,,,0.00,734.0,meteohub,2013-05-26 17:49:00,
2013-05-26 13:54:00,87.3,79.5,30.05,East,89,8.0,18.0,78,0.00,,,0.00,734.0,meteohub,2013-05-26 17:54:00,
2013-05-26 13:59:00,86.4,79.0,30.05,East,96,8.0,18.0,79,0.00,,,0.00,289.0,meteohub,2013-05-26 17:59:00,
2013-05-26 14:04:00,86.2,79.0,30.05,NE,54,10.0,14.0,79,0.00,,,0.00,343.0,meteohub,2013-05-26 18:04:00,
2013-05-26 14:09:00,85.6,78.8,30.05,East,80,11.0,14.0,80,0.00,,,0.00,341.0,meteohub,2013-05-26 18:09:00,
2013-05-26 14:14:00,85.8,78.6,30.05,East,96,7.0,16.0,79,0.00,,,0.00,391.0,meteohub,2013-05-26 18:14:00,
2013-05-26 14:19:00,85.8,78.6,30.05,ESE,113,8.0,16.0,79,0.00,,,0.00,327.0,meteohub,2013-05-26 18:19:00,
2013-05-26 14:24:00,85.8,79.0,30.05,East,99,7.0,14.0,80,0.00,,,0.00,329.0,meteohub,2013-05-26 18:24:00,
2013-05-26 14:29:00,85.8,79.0,30.05,East,86,2.0,14.0,80,0.00,,,0.00,301.0,meteohub,2013-05-26 18:29:00,
2013-05-26 14:34:00,85.5,79.0,30.05,East,89,6.0,13.0,81,0.00,,,0.00,232.0,meteohub,2013-05-26 18:34:00,
2013-05-26 14:39:00,85.3,78.8,30.05,East,93,6.0,12.0,81,0.00,,,0.00,179.0,meteohub,2013-05-26 18:39:00,
2013-05-26 14:44:00,84.9,78.4,30.05,NE,41,7.0,12.0,81,0.00,,,0.00,197.0,meteohub,2013-05-26 18:44:00,
2013-05-26 14:49:00,84.7,78.6,30.05,NE,51,5.0,12.0,82,0.00,,,0.00,144.0,meteohub,2013-05-26 18:49:00,
2013-05-26 14:54:00,84.6,78.4,30.05,East,82,10.0,12.0,82,0.00,,,0.00,164.0,meteohub,2013-05-26 18:54:00,
2013-05-26 14:59:00,84.6,78.4,30.04,ENE,66,3.0,14.0,82,0.00,,,0.00,185.0,meteohub,2013-05-26 18:59:00,
2013-05-26 15:04:00,84.6,78.4,30.04,ENE,69,11.0,14.0,82,0.00,,,0.00,176.0,meteohub,2013-05-26 19:04:00,
2013-05-26 15:09:00,84.6,78.4,30.04,East,80,10.0,14.0,82,0.00,,,0.00,160.0,meteohub,2013-05-26 19:09:00,
2013-05-26 15:14:00,84.4,78.6,30.04,ENE,66,5.0,13.0,83,0.00,,,0.00,144.0,meteohub,2013-05-26 19:14:00,
2013-05-26 15:19:00,84.4,78.6,30.04,East,95,3.0,13.0,83,0.00,,,0.00,114.0,meteohub,2013-05-26 19:19:00,
2013-05-26 15:24:00,84.0,78.6,30.04,SE,131,5.0,13.0,84,0.00,,,0.00,88.0,meteohub,2013-05-26 19:24:00,
2013-05-26 15:29:00,84.0,78.6,30.04,East,88,3.0,11.0,84,0.00,,,0.00,83.0,meteohub,2013-05-26 19:29:00,
2013-05-26 15:34:00,84.0,79.0,30.04,East,88,5.0,11.0,85,0.00,,,0.00,56.0,meteohub,2013-05-26 19:34:00,
2013-05-26 15:39:00,83.8,78.8,30.04,ENE,69,11.0,11.0,85,0.00,,,0.00,58.0,meteohub,2013-05-26 19:39:00,
2013-05-26 15:44:00,83.5,78.4,30.04,East,88,6.0,14.0,85,0.00,,,0.00,79.0,meteohub,2013-05-26 19:44:00,
2013-05-26 15:50:00,83.5,78.4,30.04,NE,40,8.0,14.0,85,0.00,,,0.00,84.0,meteohub,2013-05-26 19:50:00,
2013-05-26 15:55:00,83.5,78.8,30.04,SE,130,0.0,14.0,86,0.00,,,0.00,76.0,meteohub,2013-05-26 19:55:00,
2013-05-26 16:00:00,83.5,78.8,30.04,East,86,5.0,11.0,86,0.00,,,0.00,77.0,meteohub,2013-05-26 20:00:00,
2013-05-26 16:05:00,83.7,79.3,30.04,East,90,0.0,12.0,87,0.00,,,0.00,76.0,meteohub,2013-05-26 20:05:00,
2013-05-26 16:10:00,83.1,78.8,30.04,East,93,5.0,12.0,87,0.00,,,0.00,63.0,meteohub,2013-05-26 20:10:00,
2013-05-26 16:15:00,82.8,78.8,30.04,East,79,8.0,12.0,88,0.00,,,0.00,79.0,meteohub,2013-05-26 20:15:00,
2013-05-26 16:20:00,82.6,79.3,30.04,East,83,5.0,12.0,90,0.00,,,0.00,72.0,meteohub,2013-05-26 20:20:00,
2013-05-26 16:25:00,82.2,79.0,30.04,NE,49,0.0,12.0,90,0.00,,,0.00,69.0,meteohub,2013-05-26 20:25:00,
2013-05-26 16:30:00,82.2,79.3,30.03,East,79,0.0,12.0,91,0.00,,,0.00,86.0,meteohub,2013-05-26 20:30:00,
2013-05-26 16:35:00,82.2,79.3,30.03,ENE,75,0.0,12.0,91,0.00,,,0.00,91.0,meteohub,2013-05-26 20:35:00,
2013-05-26 16:40:00,82.0,79.2,30.03,East,95,2.0,12.0,91,0.00,,,0.00,84.0,meteohub,2013-05-26 20:40:00,
2013-05-26 16:45:00,82.0,78.8,30.03,East,93,0.0,11.0,90,0.00,,,0.00,91.0,meteohub,2013-05-26 20:45:00,
2013-05-26 16:50:00,82.2,79.0,30.03,SE,128,6.0,11.0,90,0.00,,,0.00,84.0,meteohub,2013-05-26 20:50:00,
2013-05-26 16:55:00,82.2,79.0,30.03,ENE,58,0.0,11.0,90,0.00,,,0.00,86.0,meteohub,2013-05-26 20:55:00,
2013-05-26 17:00:00,82.2,79.0,30.04,ENE,61,2.0,12.0,90,0.00,,,0.00,77.0,meteohub,2013-05-26 21:00:00,
2013-05-26 17:05:00,82.4,79.2,30.04,East,92,3.0,12.0,90,0.00,,,0.00,72.0,meteohub,2013-05-26 21:05:00,
2013-05-26 17:10:00,82.2,79.0,30.04,East,88,6.0,9.0,90,0.00,,,0.00,77.0,meteohub,2013-05-26 21:10:00,
2013-05-26 17:15:00,82.2,78.6,30.03,ENE,66,0.0,10.0,89,0.00,,,0.00,84.0,meteohub,2013-05-26 21:15:00,
2013-05-26 17:20:00,82.2,78.6,30.03,NNE,23,5.0,13.0,89,0.00,,,0.00,81.0,meteohub,2013-05-26 21:20:00,
2013-05-26 17:25:00,82.0,78.4,30.03,East,80,8.0,13.0,89,0.00,,,0.00,63.0,meteohub,2013-05-26 21:25:00,
2013-05-26 17:30:00,82.0,78.4,30.02,NE,40,4.0,12.0,89,0.00,,,0.00,63.0,meteohub,2013-05-26 21:30:00,
2013-05-26 17:35:00,82.0,78.4,30.02,ENE,65,9.0,12.0,89,0.00,,,0.00,63.0,meteohub,2013-05-26 21:35:00,
2013-05-26 17:40:00,82.0,78.8,30.02,East,88,7.0,13.0,90,0.00,,,0.00,49.0,meteohub,2013-05-26 21:40:00,
2013-05-26 17:45:00,82.0,78.8,30.02,East,90,0.0,13.0,90,0.00,,,0.00,48.0,meteohub,2013-05-26 21:45:00,
2013-05-26 17:50:00,81.9,78.6,30.02,ENE,73,0.0,13.0,90,0.00,,,0.00,39.0,meteohub,2013-05-26 21:50:00,
2013-05-26 17:55:00,81.9,78.6,30.02,ENE,66,5.0,12.0,90,0.00,,,0.00,37.0,meteohub,2013-05-26 21:55:00,
2013-05-26 18:00:00,81.9,78.6,30.03,ESE,102,11.0,12.0,90,0.00,,,0.00,35.0,meteohub,2013-05-26 22:00:00,
2013-05-26 18:06:00,81.7,78.4,30.03,ENE,66,6.0,14.0,90,0.00,,,0.00,39.0,meteohub,2013-05-26 22:06:00,
2013-05-26 18:10:00,81.7,78.4,30.03,NE,55,5.0,14.0,90,0.00,,,0.00,35.0,meteohub,2013-05-26 22:10:00,
2013-05-26 18:15:00,81.7,78.4,30.02,East,99,2.0,14.0,90,0.00,,,0.00,28.0,meteohub,2013-05-26 22:15:00,
2013-05-26 18:20:00,81.7,78.4,30.02,East,90,9.0,13.0,90,0.00,,,0.00,25.0,meteohub,2013-05-26 22:20:00,
2013-05-26 18:25:00,81.7,78.4,30.02,East,88,6.0,12.0,90,0.00,,,0.00,21.0,meteohub,2013-05-26 22:25:00,
2013-05-26 18:30:00,81.7,78.8,30.03,East,79,7.0,17.0,91,0.00,,,0.00,18.0,meteohub,2013-05-26 22:30:00,
2013-05-26 18:35:00,81.3,78.4,30.03,East,82,14.0,17.0,91,0.00,,,0.00,9.0,meteohub,2013-05-26 22:35:00,
2013-05-26 18:41:00,81.3,78.4,30.03,East,79,5.0,14.0,91,0.00,,,0.00,5.0,meteohub,2013-05-26 22:41:00,
2013-05-26 18:46:00,81.1,78.3,30.04,ENE,78,7.0,14.0,91,0.00,,,0.00,0.0,meteohub,2013-05-26 22:46:00,
2013-05-26 18:51:00,81.1,78.6,30.04,ENE,78,5.0,14.0,92,0.00,,,0.00,0.0,meteohub,2013-05-26 22:51:00,
2013-05-26 18:56:00,81.1,78.6,30.04,NE,55,10.0,14.0,92,0.00,,,0.00,0.0,meteohub,2013-05-26 22:56:00,
2013-05-26 19:01:00,81.1,78.6,30.04,ENE,72,5.0,14.0,92,0.00,,,0.00,0.0,meteohub,2013-05-26 23:01:00,
2013-05-26 19:06:00,81.1,78.6,30.04,East,83,2.0,13.0,92,0.00,,,0.00,0.0,meteohub,2013-05-26 23:06:00,
2013-05-26 19:11:00,81.1,78.6,30.04,ENE,65,7.0,13.0,92,0.00,,,0.00,0.0,meteohub,2013-05-26 23:11:00,
2013-05-26 19:16:00,81.1,79.0,30.04,ENE,68,4.0,13.0,93,0.00,,,0.00,0.0,meteohub,2013-05-26 23:16:00,
2013-05-26 19:21:00,81.1,79.0,30.04,ENE,71,7.0,12.0,93,0.00,,,0.00,0.0,meteohub,2013-05-26 23:21:00,
2013-05-26 19:26:00,81.0,78.8,30.04,NE,56,3.0,13.0,93,0.00,,,0.00,0.0,meteohub,2013-05-26 23:26:00,
2013-05-26 19:31:00,81.0,78.8,30.05,NE,42,2.0,13.0,93,0.00,,,0.00,0.0,meteohub,2013-05-26 23:31:00,
2013-05-26 19:36:00,81.0,78.8,30.05,ENE,76,0.0,17.0,93,0.00,,,0.00,0.0,meteohub,2013-05-26 23:36:00,
2013-05-26 19:42:00,81.0,78.8,30.05,ESE,112,10.0,17.0,93,0.00,,,0.00,0.0,meteohub,2013-05-26 23:42:00,
2013-05-26 19:47:00,80.8,78.8,30.05,East,92,7.0,14.0,94,0.00,,,0.00,0.0,meteohub,2013-05-26 23:47:00,
2013-05-26 19:52:00,80.4,78.6,30.05,NE,56,11.0,14.0,94,0.00,,,0.00,0.0,meteohub,2013-05-26 23:52:00,
2013-05-26 19:57:00,80.4,78.6,30.05,East,86,6.0,14.0,94,0.00,,,0.00,0.0,meteohub,2013-05-26 23:57:00,
2013-05-26 20:02:00,80.2,78.4,30.05,ENE,66,3.0,14.0,94,0.00,,,0.00,0.0,meteohub,2013-05-27 00:02:00,
2013-05-26 20:07:00,80.2,78.1,30.05,East,88,12.0,16.0,93,0.00,,,0.00,0.0,meteohub,2013-05-27 00:07:00,
2013-05-26 20:12:00,80.2,78.1,30.05,ENE,58,0.0,16.0,93,0.00,,,0.00,0.0,meteohub,2013-05-27 00:12:00,
2013-05-26 20:17:00,80.2,78.1,30.06,NE,49,6.0,16.0,93,0.00,,,0.00,0.0,meteohub,2013-05-27 00:17:00,
2013-05-26 20:22:00,80.2,78.1,30.06,ENE,78,5.0,16.0,93,0.00,,,0.00,0.0,meteohub,2013-05-27 00:22:00,
2013-05-26 20:27:00,80.2,78.1,30.06,East,80,8.0,14.0,93,0.00,,,0.00,0.0,meteohub,2013-05-27 00:27:00,
2013-05-26 20:32:00,80.2,78.1,30.06,East,93,7.0,14.0,93,0.00,,,0.00,0.0,meteohub,2013-05-27 00:32:00,
2013-05-26 20:37:00,80.2,78.1,30.06,East,79,8.0,13.0,93,0.00,,,0.00,0.0,meteohub,2013-05-27 00:37:00,
2013-05-26 20:42:00,80.2,78.4,30.07,East,85,6.0,17.0,94,0.00,,,0.00,0.0,meteohub,2013-05-27 00:42:00,
2013-05-26 20:47:00,80.2,78.1,30.07,ENE,71,7.0,17.0,93,0.00,,,0.00,0.0,meteohub,2013-05-27 00:47:00,
2013-05-26 20:52:00,80.1,78.3,30.07,East,79,7.0,16.0,94,0.00,,,0.00,0.0,meteohub,2013-05-27 00:52:00,
2013-05-26 20:57:00,80.1,77.9,30.08,East,99,9.0,16.0,93,0.00,,,0.00,0.0,meteohub,2013-05-27 00:57:00,
2013-05-26 21:02:00,80.1,77.9,30.08,ENE,69,6.0,16.0,93,0.00,,,0.00,0.0,meteohub,2013-05-27 01:02:00,
2013-05-26 21:07:00,80.1,77.9,30.08,East,99,8.0,16.0,93,0.00,,,0.00,0.0,meteohub,2013-05-27 01:07:00,
2013-05-26 21:12:00,80.1,77.9,30.08,ENE,75,6.0,16.0,93,0.00,,,0.00,0.0,meteohub,2013-05-27 01:12:00,
2013-05-26 21:18:00,80.1,77.9,30.08,ENE,78,7.0,14.0,93,0.00,,,0.00,0.0,meteohub,2013-05-27 01:18:00,
2013-05-26 21:23:00,80.1,78.3,30.08,East,88,6.0,12.0,94,0.00,,,0.00,0.0,meteohub,2013-05-27 01:23:00,
2013-05-26 21:28:00,80.1,78.3,30.08,East,80,5.0,14.0,94,0.00,,,0.00,0.0,meteohub,2013-05-27 01:28:00,
2013-05-26 21:33:00,80.1,78.3,30.08,East,89,2.0,14.0,94,0.00,,,0.00,0.0,meteohub,2013-05-27 01:33:00,
2013-05-26 21:38:00,80.1,78.3,30.08,East,85,8.0,14.0,94,0.00,,,0.00,0.0,meteohub,2013-05-27 01:38:00,
2013-05-26 21:43:00,80.1,78.3,30.09,East,95,9.0,13.0,94,0.00,,,0.00,0.0,meteohub,2013-05-27 01:43:00,
2013-05-26 21:48:00,79.9,78.1,30.09,NE,55,5.0,13.0,94,0.00,,,0.00,0.0,meteohub,2013-05-27 01:48:00,
2013-05-26 21:53:00,79.9,78.1,30.09,ESE,110,11.0,18.0,94,0.00,,,0.00,0.0,meteohub,2013-05-27 01:53:00,
2013-05-26 21:58:00,79.9,78.1,30.09,ENE,71,2.0,18.0,94,0.00,,,0.00,0.0,meteohub,2013-05-27 01:58:00,
2013-05-26 22:03:00,79.9,78.1,30.09,NE,51,7.0,14.0,94,0.00,,,0.00,0.0,meteohub,2013-05-27 02:03:00,
2013-05-26 22:08:00,80.1,78.3,30.09,East,85,6.0,14.0,94,0.00,,,0.00,0.0,meteohub,2013-05-27 02:08:00,
2013-05-26 22:13:00,80.1,78.3,30.10,NE,55,9.0,13.0,94,0.00,,,0.00,0.0,meteohub,2013-05-27 02:13:00,
2013-05-26 22:18:00,80.1,78.3,30.10,ENE,71,5.0,13.0,94,0.00,,,0.00,0.0,meteohub,2013-05-27 02:18:00,
2013-05-26 22:23:00,80.1,78.3,30.10,East,82,6.0,13.0,94,0.00,,,0.00,0.0,meteohub,2013-05-27 02:23:00,
2013-05-26 22:28:00,80.1,77.9,30.10,SE,124,0.0,16.0,93,0.00,,,0.00,0.0,meteohub,2013-05-27 02:28:00,
2013-05-26 22:33:00,80.2,78.1,30.10,East,88,0.0,16.0,93,0.00,,,0.00,0.0,meteohub,2013-05-27 02:33:00,
2013-05-26 22:38:00,80.2,78.1,30.10,ESE,116,3.0,13.0,93,0.00,,,0.00,0.0,meteohub,2013-05-27 02:38:00,
2013-05-26 22:43:00,80.2,78.1,30.10,ENE,71,0.0,13.0,93,0.00,,,0.00,0.0,meteohub,2013-05-27 02:43:00,
2013-05-26 22:48:00,80.2,78.1,30.10,ESE,113,0.0,13.0,93,0.00,,,0.00,0.0,meteohub,2013-05-27 02:48:00,
2013-05-26 22:53:00,80.2,77.7,30.10,East,95,3.0,13.0,92,0.00,,,0.00,0.0,meteohub,2013-05-27 02:53:00,
2013-05-26 22:58:00,80.2,78.1,30.10,East,93,7.0,8.0,93,0.00,,,0.00,0.0,meteohub,2013-05-27 02:58:00,
2013-05-26 23:03:00,80.2,78.1,30.10,ESE,104,6.0,11.0,93,0.00,,,0.00,0.0,meteohub,2013-05-27 03:03:00,
2013-05-26 23:09:00,80.2,78.1,30.10,ESE,110,0.0,11.0,93,0.00,,,0.00,0.0,meteohub,2013-05-27 03:09:00,
2013-05-26 23:13:00,80.1,78.3,30.10,ESE,113,0.0,11.0,94,0.00,,,0.00,0.0,meteohub,2013-05-27 03:13:00,
2013-05-26 23:19:00,79.9,78.3,30.10,ESE,107,0.0,10.0,95,0.00,,,0.00,0.0,meteohub,2013-05-27 03:19:00,
2013-05-26 23:24:00,79.5,77.9,30.10,East,90,0.0,3.0,95,0.00,,,0.00,0.0,meteohub,2013-05-27 03:24:00,
2013-05-26 23:29:00,79.3,77.7,30.09,ESE,112,0.0,7.0,95,0.00,,,0.00,0.0,meteohub,2013-05-27 03:29:00,
2013-05-26 23:34:00,79.5,77.9,30.09,ESE,121,2.0,7.0,95,0.00,,,0.00,0.0,meteohub,2013-05-27 03:34:00,
2013-05-26 23:39:00,79.3,77.7,30.09,ESE,123,0.0,8.0,95,0.00,,,0.00,0.0,meteohub,2013-05-27 03:39:00,
2013-05-26 23:44:00,79.3,77.7,30.09,SE,131,0.0,8.0,95,0.00,,,0.00,0.0,meteohub,2013-05-27 03:44:00,
2013-05-26 23:49:00,79.3,77.5,30.09,ESE,117,0.0,8.0,94,0.00,,,0.00,0.0,meteohub,2013-05-27 03:49:00,
2013-05-26 23:54:00,79.3,77.5,30.09,SE,140,0.0,8.0,94,0.00,,,0.00,0.0,meteohub,2013-05-27 03:54:00,
2013-05-26 23:59:00,79.3,77.5,30.09,East,96,0.0,5.0,94,0.00,,,0.00,0.0,meteohub,2013-05-27 03:59:00,